Time;durP1;ratioP1;P1;durP2;ratioP2;P2;SDS_P1;SDS_P2;PMS_P1;PMS_P2;Temp;Humidity;BMP_temperature;BMP_pressure;BME280_temperature;BME280_humidity;BME280_pressure;Samples;Min_cycle;Max_cycle;Signal;HPM_P1;HPM_P2
2022/12/27 00:01:28;;;;;;;62.00;32.33;;;;;;;9.43;100.00;101256.56;5020256;28;20042;-84
2022/12/27 00:03:54;;;;;;;56.55;29.75;;;;;;;9.56;100.00;101273.00;5038243;28;20037;-84
2022/12/27 00:06:24;;;;;;;68.55;32.78;;;;;;;9.52;100.00;101276.06;5037543;28;20061;-85
2022/12/27 00:08:51;;;;;;;59.03;32.38;;;;;;;9.46;100.00;101266.88;5036963;28;20112;-85
2022/12/27 00:11:20;;;;;;;57.60;30.23;;;;;;;9.45;100.00;101278.41;5020012;28;20486;-86
2022/12/27 00:13:47;;;;;;;51.95;29.27;;;;;;;9.56;100.00;101288.06;5022370;28;20042;-84
2022/12/27 00:16:15;;;;;;;60.38;32.13;;;;;;;9.63;100.00;101270.66;5019952;28;20060;-82
2022/12/27 00:18:41;;;;;;;59.78;29.92;;;;;;;9.54;100.00;101260.91;5038030;28;20034;-83
2022/12/27 00:21:10;;;;;;;56.90;30.02;;;;;;;9.70;100.00;101277.91;5018553;28;20604;-87
2022/12/27 00:23:40;;;;;;;53.25;30.08;;;;;;;9.72;100.00;101273.31;5037254;28;20061;-85
2022/12/27 00:26:10;;;;;;;57.80;30.38;;;;;;;9.71;100.00;101268.97;5022726;28;20033;-86
2022/12/27 00:28:36;;;;;;;50.33;28.42;;;;;;;9.71;100.00;101276.91;5041495;28;20029;-83
2022/12/27 00:31:04;;;;;;;52.58;28.85;;;;;;;9.67;100.00;101280.84;5023721;28;20045;-84
2022/12/27 00:33:31;;;;;;;54.20;29.80;;;;;;;9.70;100.00;101264.69;5042289;28;20057;-85
2022/12/27 00:35:58;;;;;;;51.35;28.98;;;;;;;9.71;100.00;101258.38;5039588;28;20052;-84
2022/12/27 00:38:24;;;;;;;52.58;27.98;;;;;;;9.90;100.00;101276.13;5048872;28;20083;-82
2022/12/27 00:40:50;;;;;;;52.80;26.77;;;;;;;9.90;100.00;101280.56;5051585;28;20388;-84
2022/12/27 00:43:15;;;;;;;52.60;29.08;;;;;;;9.63;100.00;101283.88;5051765;28;20037;-84
2022/12/27 00:45:42;;;;;;;50.78;27.35;;;;;;;9.61;100.00;101281.38;5049614;28;20436;-83
2022/12/27 00:48:08;;;;;;;48.33;27.38;;;;;;;9.70;100.00;101288.50;5030496;28;20034;-83
2022/12/27 00:50:33;;;;;;;52.28;27.77;;;;;;;9.69;100.00;101289.47;5049923;28;20044;-84
2022/12/27 00:52:59;;;;;;;49.38;28.05;;;;;;;9.73;100.00;101290.03;5043245;28;20041;-85
2022/12/27 00:55:24;;;;;;;51.17;28.10;;;;;;;9.64;100.00;101278.47;5048315;28;20033;-84
2022/12/27 00:57:50;;;;;;;48.83;27.55;;;;;;;9.67;100.00;101286.13;5047529;28;20037;-84
2022/12/27 01:00:16;;;;;;;53.13;27.17;;;;;;;9.78;100.00;101293.09;5050214;28;20102;-84
2022/12/27 01:02:41;;;;;;;48.00;27.50;;;;;;;9.73;100.00;101280.28;5032658;28;20036;-84
2022/12/27 01:05:10;;;;;;;52.08;28.90;;;;;;;9.61;100.00;101286.66;5049934;28;20041;-83
2022/12/27 01:07:35;;;;;;;52.53;27.30;;;;;;;9.81;100.00;101291.00;5050884;28;20091;-85
2022/12/27 01:10:01;;;;;;;47.80;27.30;;;;;;;10.00;100.00;101286.69;5034621;28;20037;-83
2022/12/27 01:12:27;;;;;;;46.08;26.23;;;;;;;10.07;100.00;101287.81;5034894;28;20050;-82
2022/12/27 01:14:52;;;;;;;45.33;25.75;;;;;;;10.10;100.00;101287.53;5051504;28;20064;-85
2022/12/27 01:17:21;;;;;;;45.08;25.20;;;;;;;9.96;100.00;101286.16;5030023;28;20037;-85
2022/12/27 01:19:50;;;;;;;51.28;28.17;;;;;;;9.77;100.00;101280.84;5041162;28;20216;-84
2022/12/27 01:22:16;;;;;;;46.80;26.88;;;;;;;9.71;100.00;101284.06;5022844;28;20037;-83
2022/12/27 01:24:42;;;;;;;48.50;26.30;;;;;;;9.86;100.00;101287.94;5038654;28;20033;-82
2022/12/27 01:27:10;;;;;;;53.78;27.67;;;;;;;9.76;100.00;101290.59;5043366;28;20030;-86
2022/12/27 01:29:36;;;;;;;49.72;27.35;;;;;;;9.75;100.00;101288.91;5042591;28;20137;-83
2022/12/27 01:32:07;;;;;;;47.38;26.50;;;;;;;9.88;100.00;101288.63;5045767;28;20085;-85
2022/12/27 01:34:35;;;;;;;49.50;27.33;;;;;;;9.97;100.00;101293.13;5043541;28;20026;-86
2022/12/27 01:37:00;;;;;;;51.50;27.90;;;;;;;10.02;100.00;101290.03;5021772;28;20132;-85
2022/12/27 01:39:26;;;;;;;47.20;25.98;;;;;;;10.07;100.00;101293.13;5036485;28;20133;-86
2022/12/27 01:44:55;;;;;;;46.58;25.63;;;;;;;9.98;100.00;101293.94;5037715;28;20040;-87
2022/12/27 01:47:23;;;;;;;44.58;25.75;;;;;;;9.96;100.00;101302.03;5026975;28;20411;-84
2022/12/27 01:50:01;;;;;;;46.88;26.10;;;;;;;9.80;100.00;101302.59;5020775;28;20377;-84
2022/12/27 01:52:52;;;;;;;54.20;26.15;;;;;;;9.68;100.00;101305.47;5037914;28;20125;-82
2022/12/27 01:55:28;;;;;;;45.42;24.52;;;;;;;9.77;100.00;101308.16;5027353;28;20407;-82
2022/12/27 01:57:57;;;;;;;42.95;24.42;;;;;;;9.75;100.00;101304.78;5035077;28;20546;-88
2022/12/27 02:00:23;;;;;;;46.10;23.98;;;;;;;9.85;100.00;101310.94;5034315;28;20033;-85
2022/12/27 02:02:50;;;;;;;47.38;25.33;;;;;;;9.79;100.00;101306.19;5018356;28;20331;-85
2022/12/27 02:05:18;;;;;;;42.17;24.77;;;;;;;9.78;100.00;101309.81;5038523;28;20396;-85
2022/12/27 02:08:12;;;;;;;46.85;25.48;;;;;;;9.62;100.00;101312.16;5045138;28;20035;-81
2022/12/27 02:10:38;;;;;;;45.78;25.17;;;;;;;9.61;100.00;101302.53;5038775;28;20033;-83
2022/12/27 02:13:05;;;;;;;44.10;24.42;;;;;;;9.80;100.00;101302.59;5021041;28;20041;-86
2022/12/27 02:15:31;;;;;;;47.50;26.08;;;;;;;9.57;100.00;101306.44;5053367;28;20033;-84
2022/12/27 02:17:57;;;;;;;48.90;26.08;;;;;;;9.76;100.00;101292.41;5050911;28;20084;-83
2022/12/27 02:20:24;;;;;;;44.88;26.25;;;;;;;9.65;100.00;101293.34;5048389;28;20038;-84
2022/12/27 02:26:00;;;;;;;46.30;25.50;;;;;;;9.55;100.00;101276.63;5038052;28;20034;-84
2022/12/27 02:28:47;;;;;;;52.30;24.77;;;;;;;9.55;100.00;101271.34;5038611;28;20042;-87
2022/12/27 02:31:21;;;;;;;47.38;26.02;;;;;;;9.65;100.00;101277.47;5038983;28;20033;-83
2022/12/27 02:33:58;;;;;;;51.33;25.92;;;;;;;9.64;100.00;101281.13;5022087;28;20041;-86
2022/12/27 02:36:32;;;;;;;41.60;24.23;;;;;;;9.67;100.00;101282.66;5020071;28;20125;-84
2022/12/27 02:39:00;;;;;;;44.00;25.17;;;;;;;9.73;100.00;101282.09;5037465;28;20065;-81
2022/12/27 02:53:14;;;;;;;44.05;23.55;;;;;;;10.07;100.00;101272.78;5036637;28;20082;-82
2022/12/27 02:55:39;;;;;;;46.60;24.00;;;;;;;10.16;100.00;101277.25;5037088;28;20369;-86
2022/12/27 02:58:08;;;;;;;41.17;23.10;;;;;;;10.10;100.00;101272.47;5019179;28;20037;-87
2022/12/27 03:03:51;;;;;;;47.05;23.50;;;;;;;9.85;100.00;101262.44;5037782;28;20041;-83
2022/12/27 03:06:41;;;;;;;;;;;;;;;9.57;100.00;101266.75;5037677;28;20033;-82
2022/12/27 03:15:54;;;;;;;46.05;25.55;;;;;;;9.35;100.00;101259.88;5050329;28;20045;-81
2022/12/27 03:18:27;;;;;;;49.50;25.60;;;;;;;9.22;100.00;101255.81;5031513;28;20045;-82
2022/12/27 03:26:31;;;;;;;46.22;25.45;;;;;;;9.32;100.00;101246.09;5020444;28;20042;-85
2022/12/27 03:34:40;;;;;;;44.85;25.17;;;;;;;9.39;100.00;101255.16;5037132;28;20041;-84
2022/12/27 03:40:04;;;;;;;47.65;26.55;;;;;;;9.42;100.00;101249.59;5039294;28;20037;-84
2022/12/27 03:46:32;;;;;;;42.75;23.90;;;;;;;9.58;100.00;101249.06;5041134;28;20488;-83
2022/12/27 03:48:10;;;;;;;42.72;23.15;;;;;;;9.56;100.00;101254.50;5021717;28;20459;-83
2022/12/27 03:51:03;;;;;;;46.38;24.02;;;;;;;9.57;100.00;101253.53;5039479;28;20025;-83
2022/12/27 03:53:40;;;;;;;41.65;23.20;;;;;;;9.61;100.00;101262.84;5036199;28;20431;-87
2022/12/27 03:56:08;;;;;;;48.72;25.02;;;;;;;9.54;100.00;101258.25;5035950;28;20041;-85
2022/12/27 03:58:33;;;;;;;46.45;24.60;;;;;;;9.54;100.00;101259.09;5036156;28;20061;-86
2022/12/27 04:01:00;;;;;;;44.80;25.02;;;;;;;9.54;100.00;101268.84;5035974;28;20481;-86
2022/12/27 04:03:25;;;;;;;45.40;24.75;;;;;;;9.55;100.00;101276.63;5035412;28;20048;-86
2022/12/27 04:05:51;;;;;;;45.33;23.52;;;;;;;9.69;100.00;101278.03;5017152;28;20060;-87
2022/12/27 04:35:43;;;;;;;41.47;23.10;;;;;;;9.41;100.00;101321.19;5039801;28;20029;-85
2022/12/27 04:38:08;;;;;;;41.65;24.13;;;;;;;9.28;100.00;101322.22;5039403;28;20096;-83
2022/12/27 04:55:17;;;;;;;42.83;24.80;;;;;;;9.05;100.00;101322.59;5048068;28;20061;-82
2022/12/27 04:57:42;;;;;;;45.22;26.33;;;;;;;8.91;100.00;101330.84;5046202;28;20034;-82
2022/12/27 05:02:53;;;;;;;43.00;24.23;;;;;;;9.14;100.00;101329.72;5039458;28;20095;-83
2022/12/27 05:05:20;;;;;;;43.15;26.05;;;;;;;9.24;100.00;101331.44;5037571;28;20041;-85
2022/12/27 05:15:58;;;;;;;42.30;25.00;;;;;;;9.06;100.00;101326.88;5035284;28;20059;-85
2022/12/27 05:18:24;;;;;;;45.70;24.23;;;;;;;9.04;100.00;101323.53;5034960;28;20472;-82
2022/12/27 05:20:49;;;;;;;42.50;23.55;;;;;;;8.82;100.00;101335.94;5016361;28;20026;-85
2022/12/27 05:25:59;;;;;;;43.08;22.77;;;;;;;8.83;100.00;101327.06;5034681;28;20034;-85
2022/12/27 05:28:24;;;;;;;41.42;23.45;;;;;;;8.91;100.00;101328.22;5017214;28;20037;-88
2022/12/27 05:30:50;;;;;;;35.38;21.42;;;;;;;9.10;100.00;101328.28;5034931;28;20504;-85
2022/12/27 05:33:15;;;;;;;39.97;22.35;;;;;;;9.00;100.00;101324.78;5034336;28;20041;-86
2022/12/27 05:35:41;;;;;;;40.88;22.73;;;;;;;8.76;100.00;101336.47;5017433;28;20041;-87
2022/12/27 05:38:06;;;;;;;40.97;22.80;;;;;;;8.99;100.00;101331.03;5037364;28;20045;-87
2022/12/27 05:40:32;;;;;;;49.45;23.52;;;;;;;8.87;100.00;101332.94;5038280;28;20482;-85
2022/12/27 05:42:59;;;;;;;39.13;24.08;;;;;;;8.76;100.00;101335.63;5038684;28;20042;-88
2022/12/27 05:45:25;;;;;;;42.30;22.73;;;;;;;8.93;100.00;101331.56;5038990;28;20037;-84
2022/12/27 05:47:50;;;;;;;39.85;22.85;;;;;;;9.08;100.00;101338.19;5043002;28;20044;-84
2022/12/27 05:50:16;;;;;;;41.85;22.30;;;;;;;9.06;100.00;101348.03;5042671;28;20032;-85
2022/12/27 05:52:41;;;;;;;36.42;20.75;;;;;;;9.16;100.00;101352.41;5043133;28;20030;-85
2022/12/27 05:55:07;;;;;;;36.15;20.73;;;;;;;9.07;100.00;101350.56;5041765;28;20064;-87
2022/12/27 05:57:33;;;;;;;39.10;21.77;;;;;;;9.02;100.00;101354.53;5042630;28;20029;-86
2022/12/27 05:59:59;;;;;;;40.38;22.73;;;;;;;8.77;100.00;101354.00;5043703;28;20046;-88
2022/12/27 06:02:25;;;;;;;40.22;22.17;;;;;;;8.57;100.00;101357.50;5043534;28;20033;-85
2022/12/27 06:04:50;;;;;;;46.92;23.77;;;;;;;8.63;100.00;101350.84;5040390;28;20032;-84
2022/12/27 06:07:16;;;;;;;40.00;23.08;;;;;;;8.60;100.00;101357.25;5039550;28;20049;-83
2022/12/27 06:09:42;;;;;;;39.33;22.40;;;;;;;8.72;100.00;101345.63;5038765;28;20412;-86
2022/12/27 06:12:07;;;;;;;39.97;22.45;;;;;;;8.88;100.00;101346.97;5038833;28;20045;-87
2022/12/27 06:14:34;;;;;;;41.97;23.35;;;;;;;8.87;100.00;101353.22;5039532;28;20089;-83
2022/12/27 06:16:59;;;;;;;36.72;21.92;;;;;;;8.97;100.00;101354.13;5020955;28;20108;-86
2022/12/27 06:19:48;;;;;;;41.17;22.48;;;;;;;8.95;100.00;101353.44;5089498;23;20055;-82
2022/12/27 06:22:29;;;;;;;34.33;20.83;;;;;;;8.88;100.00;101360.19;5059382;28;20041;-83
2022/12/27 06:24:56;;;;;;;34.08;20.13;;;;;;;8.71;100.00;101365.13;5046926;28;20052;-86
2022/12/27 06:27:21;;;;;;;35.50;21.08;;;;;;;8.78;100.00;101371.53;5040950;28;20029;-86
2022/12/27 06:29:47;;;;;;;37.42;20.58;;;;;;;8.90;100.00;101368.81;5059021;28;20124;-85
2022/12/27 06:32:14;;;;;;;33.40;20.40;;;;;;;8.95;100.00;101372.75;5058851;28;20075;-83
2022/12/27 06:34:40;;;;;;;34.03;19.25;;;;;;;9.04;100.00;101373.78;5058067;28;20064;-82
2022/12/27 06:37:05;;;;;;;31.70;19.95;;;;;;;9.06;100.00;101363.91;5064892;28;20025;-84
2022/12/27 06:39:31;;;;;;;35.08;19.75;;;;;;;9.07;100.00;101362.94;5060179;28;20044;-82
2022/12/27 06:41:56;;;;;;;36.78;19.80;;;;;;;8.97;100.00;101370.81;5054886;28;20029;-85
2022/12/27 06:44:22;;;;;;;36.63;19.10;;;;;;;8.61;100.00;101380.06;5060383;28;20568;-85
2022/12/27 06:46:47;;;;;;;34.78;19.73;;;;;;;8.45;100.00;101374.34;5058576;28;20040;-84
2022/12/27 06:49:13;;;;;;;35.75;20.35;;;;;;;8.35;100.00;101378.75;5056034;28;20423;-83
2022/12/27 06:51:38;;;;;;;31.90;20.08;;;;;;;7.97;100.00;101376.56;5058791;28;20037;-83
2022/12/27 06:54:04;;;;;;;36.92;20.55;;;;;;;8.03;100.00;101385.78;5057584;28;20029;-85
2022/12/27 06:56:29;;;;;;;33.10;18.17;;;;;;;8.02;100.00;101384.94;5057523;28;20029;-89
2022/12/27 06:58:55;;;;;;;31.33;18.25;;;;;;;8.00;100.00;101383.41;5057624;28;20373;-86
2022/12/27 07:01:23;;;;;;;30.90;17.65;;;;;;;7.98;100.00;101380.91;5058230;28;20063;-85
2022/12/27 07:03:53;;;;;;;34.45;17.58;;;;;;;7.90;100.00;101393.00;5062081;28;20048;-86
2022/12/27 07:06:20;;;;;;;30.27;17.95;;;;;;;7.78;100.00;101395.69;5071442;28;20083;-83
2022/12/27 07:08:47;;;;;;;34.53;18.60;;;;;;;7.64;100.00;101393.31;5063684;28;20052;-84
2022/12/27 07:11:13;;;;;;;31.58;18.50;;;;;;;7.61;100.00;101393.56;5061441;28;20048;-82
2022/12/27 07:13:42;;;;;;;41.95;20.50;;;;;;;7.61;100.00;101398.84;5060088;28;20029;-86
2022/12/27 07:16:11;;;;;;;34.30;20.13;;;;;;;7.71;100.00;101404.22;5057016;28;20143;-85
2022/12/27 07:18:37;;;;;;;37.03;19.02;;;;;;;7.73;100.00;101403.13;5057030;28;20045;-86
2022/12/27 07:21:06;;;;;;;31.83;18.73;;;;;;;7.84;100.00;101406.72;5056063;28;20036;-84
2022/12/27 07:23:32;;;;;;;36.13;19.15;;;;;;;7.88;100.00;101397.59;5057686;28;20036;-86
2022/12/27 07:26:02;;;;;;;33.78;19.20;;;;;;;7.98;100.00;101401.16;5056795;28;20028;-83
2022/12/27 07:28:28;;;;;;;31.35;18.70;;;;;;;8.16;100.00;101408.41;5067393;28;20097;-82
2022/12/27 07:30:59;;;;;;;36.30;18.50;;;;;;;8.41;100.00;101415.22;5069870;28;20025;-84
2022/12/27 07:33:25;;;;;;;37.80;18.65;;;;;;;8.53;100.00;101413.34;5067369;28;20083;-85
2022/12/27 07:36:00;;;;;;;33.45;17.70;;;;;;;8.51;100.00;101417.94;5062751;28;20044;-85
2022/12/27 07:38:28;;;;;;;35.38;19.33;;;;;;;8.92;100.00;101423.22;5065463;28;20676;-83
2022/12/27 07:40:53;;;;;;;31.58;18.63;;;;;;;9.22;100.00;101427.72;5039558;28;20036;-84
2022/12/27 07:43:19;;;;;;;31.23;19.17;;;;;;;9.25;100.00;101432.75;5055900;28;20033;-85
2022/12/27 07:45:45;;;;;;;44.10;20.67;;;;;;;9.27;100.00;101431.66;5057084;28;20105;-84
2022/12/27 07:48:11;;;;;;;32.58;19.55;;;;;;;9.63;100.00;101438.22;5056217;28;20120;-84
2022/12/27 07:50:39;;;;;;;31.50;18.50;;;;;;;9.46;100.00;101430.91;5052532;28;20095;-83
2022/12/27 07:53:05;;;;;;;34.47;18.25;;;;;;;9.16;100.00;101436.19;5037636;28;20112;-81
2022/12/27 07:55:31;;;;;;;36.90;19.17;;;;;;;8.80;100.00;101433.03;5070349;28;20052;-83
2022/12/27 07:57:56;;;;;;;35.97;20.33;;;;;;;8.72;100.00;101440.75;5070984;28;20036;-83
2022/12/27 08:00:26;;;;;;;33.95;19.17;;;;;;;8.68;100.00;101439.34;5059445;28;20041;-82
2022/12/27 08:02:52;;;;;;;30.45;19.63;;;;;;;8.63;100.00;101444.19;5022824;28;20244;-88
2022/12/27 08:05:17;;;;;;;38.65;20.08;;;;;;;8.52;100.00;101449.50;5056605;28;20478;-84
2022/12/27 08:07:43;;;;;;;39.22;21.83;;;;;;;8.18;100.00;101450.56;5039768;28;20044;-82
2022/12/27 08:10:09;;;;;;;38.40;22.23;;;;;;;7.97;100.00;101445.19;5057207;28;20037;-88
2022/12/27 08:12:34;;;;;;;37.58;21.85;;;;;;;7.89;100.00;101465.25;5055687;28;20059;-86
2022/12/27 08:15:00;;;;;;;39.53;23.98;;;;;;;7.72;100.00;101459.47;5056041;28;20040;-86
2022/12/27 08:17:27;;;;;;;47.80;23.60;;;;;;;7.73;100.00;101461.19;5056319;28;20071;-88
2022/12/27 08:19:55;;;;;;;47.30;23.83;;;;;;;7.75;100.00;101464.56;5055165;28;20064;-85
2022/12/27 08:22:22;;;;;;;43.70;26.23;;;;;;;7.63;100.00;101460.22;5056081;28;20051;-87
2022/12/27 08:24:50;;;;;;;48.97;24.75;;;;;;;7.71;100.00;101457.84;5022387;28;20037;-83
2022/12/27 08:27:22;;;;;;;51.85;25.33;;;;;;;7.88;100.00;101460.94;5057409;28;20441;-83
2022/12/27 08:29:48;;;;;;;51.50;23.75;;;;;;;7.90;100.00;101457.19;5068691;28;20047;-84
2022/12/27 08:32:15;;;;;;;41.38;22.85;;;;;;;8.04;100.00;101469.31;5066077;28;20033;-85
2022/12/27 08:34:40;;;;;;;42.67;23.55;;;;;;;8.17;100.00;101464.72;5049324;28;20033;-83
2022/12/27 08:37:07;;;;;;;49.15;24.80;;;;;;;8.23;100.00;101464.22;5059278;28;20044;-87
2022/12/27 08:39:32;;;;;;;57.72;23.48;;;;;;;8.29;100.00;101469.88;5054571;28;20029;-85
2022/12/27 08:41:58;;;;;;;38.10;21.98;;;;;;;8.53;100.00;101466.19;5055750;28;20125;-88
2022/12/27 08:44:24;;;;;;;38.65;21.30;;;;;;;8.56;100.00;101466.78;5055537;28;20037;-87
2022/12/27 08:46:49;;;;;;;44.67;21.65;;;;;;;8.64;100.00;101474.09;5038922;28;20071;-89
2022/12/27 08:49:15;;;;;;;37.38;20.42;;;;;;;8.99;100.00;101473.78;5056263;28;20029;-86
2022/12/27 08:51:40;;;;;;;35.08;20.85;;;;;;;8.93;100.00;101475.16;5037844;28;20059;-86
2022/12/27 08:54:06;;;;;;;38.00;20.92;;;;;;;9.14;100.00;101483.09;5055727;28;20436;-87
2022/12/27 08:56:32;;;;;;;39.30;20.88;;;;;;;9.18;100.00;101489.81;5055130;28;20037;-89
2022/12/27 08:58:57;;;;;;;39.45;20.50;;;;;;;9.26;100.00;101493.47;5054762;28;20044;-90
2022/12/27 09:01:24;;;;;;;43.95;22.63;;;;;;;9.20;100.00;101487.84;5055082;28;20064;-89
2022/12/27 09:03:50;;;;;;;48.45;22.70;;;;;;;9.20;100.00;101498.44;5055759;28;20033;-84
2022/12/27 09:06:20;;;;;;;44.47;23.88;;;;;;;9.32;100.00;101492.09;5056115;28;20033;-87
2022/12/27 09:08:47;;;;;;;40.72;22.42;;;;;;;9.56;100.00;101495.31;5055544;28;20041;-87
2022/12/27 09:11:15;;;;;;;44.17;22.10;;;;;;;9.66;100.00;101496.19;5057456;28;20049;-87
2022/12/27 09:13:40;;;;;;;43.00;22.73;;;;;;;9.75;100.00;101508.63;5061357;28;20036;-89
2022/12/27 09:16:12;;;;;;;43.20;23.60;;;;;;;9.93;100.00;101508.00;5055759;28;20045;-87
2022/12/27 09:18:39;;;;;;;45.45;23.75;;;;;;;10.00;100.00;101501.19;5043632;28;20387;-88
2022/12/27 09:21:11;;;;;;;43.40;24.92;;;;;;;10.08;100.00;101501.34;5025135;28;20039;-89
2022/12/27 09:23:37;;;;;;;29.60;17.67;;;;;;;10.26;100.00;101494.47;5061884;28;20482;-85
2022/12/27 09:26:14;;;;;;;40.35;24.65;;;;;;;10.38;100.00;101504.81;5076336;28;20033;-86
2022/12/27 09:28:41;;;;;;;43.38;24.38;;;;;;;10.35;100.00;101504.25;5037395;28;20480;-86
2022/12/27 09:31:08;;;;;;;44.47;25.25;;;;;;;10.35;100.00;101504.25;5050857;28;20037;-86
2022/12/27 09:33:34;;;;;;;39.45;24.77;;;;;;;10.27;100.00;101506.75;5048695;28;20047;-89
2022/12/27 09:36:05;;;;;;;42.70;24.88;;;;;;;10.31;100.00;101513.44;5055591;28;20037;-88
2022/12/27 09:38:31;;;;;;;41.33;25.13;;;;;;;10.31;100.00;101519.56;5051919;28;20075;-88
2022/12/27 09:41:03;;;;;;;44.13;25.30;;;;;;;10.48;100.00;101523.38;5052602;28;20045;-85
2022/12/27 09:43:49;;;;;;;42.30;25.30;;;;;;;10.44;100.00;101518.50;5053682;28;20043;-84
2022/12/27 09:46:27;;;;;;;38.85;23.92;;;;;;;10.55;100.00;101519.22;5054696;28;20054;-88
2022/12/27 09:48:55;;;;;;;43.20;24.88;;;;;;;10.74;100.00;101505.97;5055371;28;20056;-87
2022/12/27 09:51:35;;;;;;;43.88;25.23;;;;;;;10.91;100.00;101507.06;5054730;28;20024;-85
2022/12/27 09:54:14;;;;;;;36.00;22.15;;;;;;;11.06;100.00;101507.50;5051689;28;20153;-86
2022/12/27 09:56:40;;;;;;;35.28;22.75;;;;;;;11.24;100.00;101503.13;5055272;28;20029;-84
2022/12/27 09:59:30;;;;;;;36.92;22.80;;;;;;;11.04;100.00;101498.81;5056649;28;20037;-85
2022/12/27 10:01:56;;;;;;;36.97;22.92;;;;;;;10.97;100.00;101501.22;5055538;28;20041;-85
2022/12/27 10:04:21;;;;;;;41.00;22.88;;;;;;;10.96;100.00;101501.38;5055024;28;20029;-86
2022/12/27 10:06:47;;;;;;;37.83;22.92;;;;;;;10.90;100.00;101500.94;5056865;28;20044;-85
2022/12/27 10:09:41;;;;;;;38.17;22.88;;;;;;;11.06;100.00;101502.19;5035097;28;20075;-89
2022/12/27 10:12:25;;;;;;;38.40;22.88;;;;;;;11.07;100.00;101501.22;5034913;28;20032;-86
2022/12/27 10:15:22;;;;;;;33.35;22.00;;;;;;;11.07;100.00;101504.69;5035996;28;20068;-84
2022/12/27 10:18:02;;;;;;;35.70;20.83;;;;;;;11.26;100.00;101498.53;5053985;28;20037;-84
2022/12/27 10:20:46;;;;;;;34.90;21.60;;;;;;;11.22;100.00;101495.31;5054627;28;20120;-85
2022/12/27 10:23:18;;;;;;;37.67;21.40;;;;;;;11.28;100.00;101493.91;5055284;28;20063;-84
2022/12/27 10:25:44;;;;;;;26.52;16.30;;;;;;;11.41;100.00;101499.75;5057658;28;20569;-85
2022/12/27 10:28:17;;;;;;;33.45;20.63;;;;;;;11.37;100.00;101493.03;5059962;28;20101;-86
2022/12/27 10:30:43;;;;;;;43.15;23.30;;;;;;;11.20;100.00;101501.78;5060425;28;20033;-86
2022/12/27 10:33:25;;;;;;;35.70;21.55;;;;;;;11.08;100.00;101493.09;5061873;28;20036;-83
2022/12/27 10:35:51;;;;;;;41.60;23.48;;;;;;;11.18;100.00;101488.63;5060489;28;20052;-84
2022/12/27 10:38:18;;;;;;;42.67;22.45;;;;;;;11.18;100.00;101493.09;5061687;28;20029;-84
2022/12/27 10:41:01;;;;;;;36.20;20.42;;;;;;;11.12;100.00;101480.41;5061672;28;20029;-84
2022/12/27 10:43:40;;;;;;;35.28;21.48;;;;;;;11.25;100.00;101488.91;5063722;28;20041;-88
2022/12/27 10:46:15;;;;;;;35.20;21.23;;;;;;;11.39;100.00;101491.09;5060932;28;20079;-83
2022/12/27 10:48:52;;;;;;;32.60;20.48;;;;;;;11.41;100.00;101489.13;5060577;28;20037;-82
2022/12/27 10:51:18;;;;;;;31.70;19.75;;;;;;;11.38;100.00;101487.59;5061758;28;20064;-84
2022/12/27 10:53:45;;;;;;;33.65;18.85;;;;;;;11.60;100.00;101481.09;5060261;28;20036;-83
2022/12/27 10:56:28;;;;;;;33.13;19.40;;;;;;;11.45;100.00;101479.91;5061003;28;20107;-82
2022/12/27 10:59:14;;;;;;;35.28;20.75;;;;;;;11.45;100.00;101474.59;5067584;28;20175;-82
2022/12/27 11:01:40;;;;;;;35.85;21.30;;;;;;;11.47;100.00;101472.63;5065111;28;20037;-82
2022/12/27 11:04:13;;;;;;;32.50;19.67;;;;;;;11.33;100.00;101470.44;5063211;28;20511;-82
2022/12/27 11:06:40;;;;;;;41.10;22.02;;;;;;;11.30;100.00;101468.09;5063127;28;20037;-85
2022/12/27 11:09:40;;;;;;;49.83;25.45;;;;;;;11.42;100.00;101464.28;5061483;28;20025;-83
2022/12/27 11:12:23;;;;;;;36.33;20.85;;;;;;;11.50;100.00;101469.69;4977033;28;20051;-84
2022/12/27 11:15:03;;;;;;;35.28;21.67;;;;;;;11.43;100.00;101466.75;4962165;28;20434;-82
2022/12/27 11:17:40;;;;;;;66.88;32.35;;;;;;;11.49;100.00;101460.06;4978447;28;20113;-84
2022/12/27 11:20:20;;;;;;;34.40;20.25;;;;;;;11.65;100.00;101454.13;4980307;28;20055;-85
2022/12/27 11:22:58;;;;;;;35.85;21.08;;;;;;;11.55;100.00;101454.16;5063506;28;20087;-82
2022/12/27 11:25:26;;;;;;;36.08;22.08;;;;;;;11.59;100.00;101447.59;5076579;28;20029;-83
2022/12/27 11:28:00;;;;;;;33.08;20.63;;;;;;;11.54;100.00;101441.03;5075167;28;20033;-81
2022/12/27 11:30:33;;;;;;;36.95;21.35;;;;;;;11.73;100.00;101439.16;5074362;28;20045;-81
2022/12/27 11:33:16;;;;;;;34.90;21.67;;;;;;;11.81;100.00;101441.91;5074120;28;20044;-82
2022/12/27 11:35:51;;;;;;;33.83;20.15;;;;;;;11.90;100.00;101432.22;5072618;28;20033;-83
2022/12/27 11:38:23;;;;;;;35.83;20.67;;;;;;;11.79;100.00;101445.72;5073741;28;20029;-82
2022/12/27 11:41:15;;;;;;;32.22;21.50;;;;;;;11.78;100.00;101434.25;5073119;28;20029;-83
2022/12/27 11:44:00;;;;;;;34.28;21.45;;;;;;;11.75;100.00;101433.72;5064317;28;20045;-82
2022/12/27 11:46:44;;;;;;;36.55;22.48;;;;;;;11.70;100.00;101435.94;5069840;28;20025;-82
2022/12/27 11:49:20;;;;;;;38.67;22.02;;;;;;;11.73;100.00;101430.38;5073776;28;20044;-83
2022/12/27 11:52:04;;;;;;;34.65;21.50;;;;;;;11.77;100.00;101437.88;5074967;28;20046;-83
2022/12/27 11:55:01;;;;;;;35.97;20.95;;;;;;;11.88;100.00;101439.50;5074153;28;20037;-80
2022/12/27 11:57:51;;;;;;;36.72;22.65;;;;;;;11.79;100.00;101435.94;5073966;28;20044;-82
2022/12/27 12:00:22;;;;;;;39.60;22.60;;;;;;;11.85;100.00;101430.03;5075237;28;20063;-82
2022/12/27 12:03:13;;;;;;;35.97;22.77;;;;;;;11.93;100.00;101423.13;5075336;28;20060;-82
2022/12/27 12:05:40;;;;;;;36.83;24.25;;;;;;;11.85;100.00;101411.44;5075816;28;20043;-83
2022/12/27 12:08:53;;;;;;;38.58;23.13;;;;;;;11.78;100.00;101418.31;5076435;28;20198;-83
2022/12/27 12:11:56;;;;;;;39.85;23.80;;;;;;;11.77;100.00;101421.94;4979187;28;20106;-82
2022/12/27 12:14:50;;;;;;;36.40;23.15;;;;;;;11.84;100.00;101425.69;5077616;28;20105;-83
2022/12/27 12:17:38;;;;;;;36.03;22.88;;;;;;;11.85;100.00;101414.09;5077901;28;20020;-83
2022/12/27 12:20:31;;;;;;;35.38;21.83;;;;;;;11.88;100.00;101420.91;5077627;28;20055;-83
2022/12/27 12:23:05;;;;;;;40.75;22.48;;;;;;;11.90;100.00;101418.94;5077248;28;20029;-82
2022/12/27 12:25:49;;;;;;;36.85;21.48;;;;;;;11.91;100.00;101413.50;5077637;28;20045;-84
2022/12/27 12:28:33;;;;;;;35.90;22.75;;;;;;;12.03;100.00;101415.94;5077484;28;20020;-83
2022/12/27 12:31:04;;;;;;;39.63;23.27;;;;;;;12.12;100.00;101412.38;5077897;28;20092;-85
2022/12/27 12:34:09;;;;;;;35.97;23.17;;;;;;;12.21;100.00;101407.00;5077181;28;20105;-82
2022/12/27 12:37:30;;;;;;;39.92;24.65;;;;;;;12.23;100.00;101409.50;4979957;28;20043;-82
2022/12/27 12:39:55;;;;;;;41.40;24.30;;;;;;;12.13;100.00;101416.72;4961925;28;20078;-83
2022/12/27 12:42:51;;;;;;;41.53;25.17;;;;;;;12.10;100.00;101412.50;4974521;28;20073;-83
2022/12/27 12:45:22;;;;;;;42.10;25.83;;;;;;;12.10;100.00;101409.84;4974943;28;20043;-82
2022/12/27 12:48:09;;;;;;;42.78;23.75;;;;;;;12.06;100.00;101410.31;5035775;28;20452;-85
2022/12/27 12:50:51;;;;;;;39.75;24.17;;;;;;;12.19;100.00;101408.97;5053768;28;20120;-84
2022/12/27 12:53:44;;;;;;;35.15;21.83;;;;;;;12.06;100.00;101399.69;5055025;28;20144;-82
2022/12/27 12:56:24;;;;;;;37.35;23.75;;;;;;;12.13;100.00;101395.47;5058702;28;20055;-85
2022/12/27 12:59:04;;;;;;;51.17;28.15;;;;;;;12.13;100.00;101390.16;5061431;28;20365;-87
2022/12/27 13:01:33;;;;;;;47.15;29.20;;;;;;;12.10;100.00;101393.06;5061180;28;20079;-84
2022/12/27 13:04:21;;;;;;;43.42;28.40;;;;;;;12.07;100.00;101386.25;5061386;28;20048;-83
2022/12/27 13:06:53;;;;;;;44.53;29.23;;;;;;;11.97;100.00;101384.63;5042700;28;20400;-83